首页
METAR-TAF:

METAR-TAF

机场 :

帕果帕果國際機場

帕果帕果, 美国本土外小岛屿

纬度: 14-20S, 经度: 170-43W, 海拔: 3米

当前天气观测

该预报发布于1小时和22分钟前的22:50 UTC
风速3节,风向多变
温度 26°C
湿度 84%
气压 1012 hPa
能見度: 12.9公里
散云层高于1500英尺, 塔状积云.
多云层高于3000英尺
阴天层高于10000英尺
阵雨

METAR: NSTU 162250Z VRB03KT 8SM SHRA SCT015TCU BKN030 OVC100 26/23 A2989 RMK SHRAB02 TCU S-W-N SLP124 T02640234

时间: 13:12 (00:12 UTC)

预报

该预报发布于39分钟前的23:33 UTC
预报有效从17日的 00点(UTC)到 17日的 24点(UTC)
风速10节,风向
能見度: 10公里
散云层高于1500英尺
多云层高于4000英尺
多云层高于10000英尺
附近有阵雨
短暂存在
从 17日的 00点(UTC)到 17日的 04点(UTC)
能見度: 1.6公里
多云层高于2500英尺, 积雨云.
多云层高于4000英尺
阴天层高于10000英尺
雷暴, 雨

TAF: NSTU 162333Z 1700/1724 08010KT P6SM VCSH SCT015 BKN040 BKN100 TEMPO 1700/1704 1SM TSRA BKN025CB BKN040 OVC100

超过4000个机场的气象观测和天气预报(METAR&TAF报告)。

可查询的气象台以黄色和红色小点在地图上表示。

将鼠标移到小点上方,可查看气象台名称。

然后点击查看天气观测和预报。

如需切换地图:点击带黑十字的绿色按钮放大地图;点击带横线的绿色按钮缩小地图;或者点击绿色箭头查看邻近地区的地图。


METAR-TAF: